Time;durP1;ratioP1;P1;durP2;ratioP2;P2;SDS_P1;SDS_P2;PMS_P1;PMS_P2;Temp;Humidity;BMP_temperature;BMP_pressure;BME280_temperature;BME280_humidity;BME280_pressure;Samples;Min_cycle;Max_cycle;Signal;HPM_P1;HPM_P2
2023/05/05 00:01:26;;;;;;;2.90;2.70;;;20.80;50.30;;;;;;4978845;28;20660;-81
2023/05/05 00:03:53;;;;;;;3.45;3.15;;;20.80;50.30;;;;;;4996523;28;20200;-81
2023/05/05 00:06:20;;;;;;;3.70;3.10;;;20.80;50.20;;;;;;4979034;28;20197;-81
2023/05/05 00:08:48;;;;;;;3.30;3.00;;;20.70;50.30;;;;;;4979962;28;20228;-81
2023/05/05 00:11:17;;;;;;;3.53;3.22;;;20.80;50.40;;;;;;4979721;28;20221;-81
2023/05/05 00:13:44;;;;;;;3.92;3.10;;;20.80;50.30;;;;;;4979118;28;20689;-81
2023/05/05 00:16:11;;;;;;;3.10;2.90;;;20.70;50.40;;;;;;4979661;28;20255;-81
2023/05/05 00:18:38;;;;;;;3.78;3.03;;;20.70;50.40;;;;;;4996668;28;20251;-81
2023/05/05 00:21:05;;;;;;;3.25;3.05;;;20.80;50.50;;;;;;4978985;28;20260;-81
2023/05/05 00:23:33;;;;;;;3.65;3.30;;;20.70;50.40;;;;;;4978945;28;20203;-81
2023/05/05 00:25:59;;;;;;;3.53;3.22;;;20.70;50.40;;;;;;4978647;28;20613;-81
2023/05/05 00:28:28;;;;;;;3.58;3.20;;;20.70;50.40;;;;;;4963188;28;20296;-81
2023/05/05 00:30:55;;;;;;;3.35;3.13;;;20.70;50.40;;;;;;4979464;28;20228;-81
2023/05/05 00:33:23;;;;;;;3.28;3.00;;;20.80;50.60;;;;;;4962988;28;20209;-81
2023/05/05 00:35:50;;;;;;;3.40;3.10;;;20.70;50.50;;;;;;4996500;28;20193;-81
2023/05/05 00:38:17;;;;;;;3.50;3.20;;;20.70;50.50;;;;;;4979227;28;20205;-81
2023/05/05 00:40:45;;;;;;;3.13;2.92;;;20.70;50.50;;;;;;4998189;28;20215;-81
2023/05/05 00:43:12;;;;;;;3.22;3.03;;;20.70;50.50;;;;;;4980208;28;20248;-81
2023/05/05 00:45:43;;;;;;;3.40;3.10;;;20.70;50.50;;;;;;4984034;28;20205;-81
2023/05/05 00:48:10;;;;;;;3.35;3.08;;;20.60;50.50;;;;;;4996008;28;20632;-81
2023/05/05 00:50:37;;;;;;;3.20;2.90;;;20.70;50.50;;;;;;4980099;28;20675;-81
2023/05/05 00:53:05;;;;;;;3.67;3.35;;;20.70;50.50;;;;;;4980140;28;20634;-81
2023/05/05 00:55:33;;;;;;;3.58;3.28;;;20.60;50.40;;;;;;4978633;28;20667;-81
2023/05/05 00:58:00;;;;;;;3.30;3.05;;;20.60;50.50;;;;;;4978494;28;20204;-81
2023/05/05 01:00:28;;;;;;;3.63;3.33;;;20.60;50.50;;;;;;4978689;28;20217;-81
2023/05/05 01:02:57;;;;;;;3.65;3.17;;;20.60;50.50;;;;;;4978627;28;20325;-81
2023/05/05 01:05:25;;;;;;;3.20;2.90;;;20.60;50.60;;;;;;4978554;28;20198;-81
2023/05/05 01:08:01;;;;;;;3.90;3.60;;;20.60;50.60;;;;;;4978056;28;20264;-81
2023/05/05 01:10:33;;;;;;;3.58;3.28;;;20.60;50.70;;;;;;4978954;28;20229;-81
2023/05/05 01:13:07;;;;;;;3.83;3.50;;;20.60;50.60;;;;;;4979479;28;20256;-81
2023/05/05 01:15:36;;;;;;;3.72;3.42;;;20.60;50.70;;;;;;4979597;28;20544;-81
2023/05/05 01:18:09;;;;;;;3.92;3.45;;;20.60;50.60;;;;;;4994821;28;20259;-81
2023/05/05 01:20:41;;;;;;;3.53;3.22;;;20.60;50.70;;;;;;4978534;28;20308;-81
2023/05/05 01:23:08;;;;;;;3.80;3.50;;;20.60;50.70;;;;;;4978737;28;20196;-81
2023/05/05 01:26:08;;;;;;;3.92;3.63;;;20.60;50.70;;;;;;4980035;28;20312;-81
2023/05/05 01:28:45;;;;;;;3.53;3.30;;;20.60;50.70;;;;;;4976803;28;20762;-81
2023/05/05 01:31:28;;;;;;;3.28;3.00;;;20.60;50.70;;;;;;4978863;28;20228;-81
2023/05/05 01:34:00;;;;;;;3.80;3.50;;;20.50;50.60;;;;;;4978315;28;20226;-81
2023/05/05 01:36:31;;;;;;;3.50;3.20;;;20.50;50.60;;;;;;4978724;28;20235;-81
2023/05/05 01:39:00;;;;;;;3.30;3.10;;;20.60;50.70;;;;;;4977939;28;20646;-81
2023/05/05 01:41:30;;;;;;;3.20;3.00;;;20.50;50.60;;;;;;4978074;28;20651;-81
2023/05/05 01:43:57;;;;;;;3.20;3.00;;;20.50;50.60;;;;;;4978016;28;20220;-81
2023/05/05 01:46:25;;;;;;;3.65;3.35;;;20.50;50.60;;;;;;4978344;28;20228;-81
2023/05/05 01:48:53;;;;;;;3.55;3.25;;;20.50;50.60;;;;;;4979162;28;20236;-81
2023/05/05 01:51:22;;;;;;;3.50;3.30;;;20.50;50.60;;;;;;4978133;28;20209;-81
2023/05/05 01:53:50;;;;;;;3.50;3.20;;;20.50;50.60;;;;;;4977823;28;20225;-81
2023/05/05 01:56:16;;;;;;;3.50;3.20;;;20.50;50.60;;;;;;4977601;28;20575;-81
2023/05/05 01:58:44;;;;;;;3.72;3.42;;;20.50;50.70;;;;;;4978053;28;20205;-81
2023/05/05 02:01:11;;;;;;;4.82;3.45;;;20.40;50.60;;;;;;4977902;28;20209;-81
2023/05/05 02:03:38;;;;;;;3.88;3.58;;;20.40;50.60;;;;;;4978118;28;20204;-81
2023/05/05 02:06:05;;;;;;;4.05;3.75;;;20.40;50.50;;;;;;4977787;28;20552;-81
2023/05/05 02:08:34;;;;;;;3.75;3.45;;;20.40;50.60;;;;;;4978095;28;20212;-81
2023/05/05 02:11:01;;;;;;;3.80;3.38;;;20.40;50.70;;;;;;4994222;28;20229;-81
2023/05/05 02:13:29;;;;;;;3.47;3.17;;;20.40;50.70;;;;;;4977271;28;20264;-81
2023/05/05 02:15:57;;;;;;;3.90;3.53;;;20.40;50.80;;;;;;4995067;28;20268;-81
2023/05/05 02:18:24;;;;;;;3.83;3.47;;;20.30;50.70;;;;;;4977222;28;20210;-81
2023/05/05 02:20:52;;;;;;;3.53;3.25;;;20.30;50.70;;;;;;4980135;28;20315;-81
2023/05/05 02:23:19;;;;;;;3.75;3.45;;;20.30;50.80;;;;;;4980897;28;20185;-81
2023/05/05 02:25:50;;;;;;;3.60;3.30;;;20.30;50.80;;;;;;4980533;28;20221;-81
2023/05/05 02:28:21;;;;;;;3.42;3.20;;;20.30;50.90;;;;;;4981814;28;20604;-81
2023/05/05 02:30:51;;;;;;;3.88;3.47;;;20.30;50.90;;;;;;4981371;28;20312;-81
2023/05/05 02:33:17;;;;;;;3.88;3.50;;;20.30;50.90;;;;;;4980722;28;20308;-81
2023/05/05 02:35:45;;;;;;;3.63;3.42;;;20.30;50.90;;;;;;4980763;28;20201;-81
2023/05/05 02:38:17;;;;;;;3.65;3.30;;;20.30;50.90;;;;;;4980452;28;20619;-81
2023/05/05 02:40:48;;;;;;;3.90;3.50;;;20.30;50.80;;;;;;4980394;28;20638;-81
2023/05/05 02:43:18;;;;;;;3.58;3.38;;;20.30;50.90;;;;;;4964287;28;20197;-80
2023/05/05 02:45:45;;;;;;;3.33;3.03;;;20.30;50.90;;;;;;4980562;28;20247;-80
2023/05/05 02:48:14;;;;;;;3.83;3.45;;;20.30;50.90;;;;;;4980391;28;20217;-80
2023/05/05 02:50:41;;;;;;;3.40;3.13;;;20.30;51.00;;;;;;4980644;28;20312;-80
2023/05/05 02:53:22;;;;;;;3.47;3.22;;;20.30;51.00;;;;;;4980795;28;20307;-80
2023/05/05 02:55:51;;;;;;;3.63;3.25;;;20.30;51.00;;;;;;4981062;28;20264;-80
2023/05/05 02:58:24;;;;;;;3.47;3.22;;;20.20;50.90;;;;;;4981013;28;20288;-80
2023/05/05 03:00:55;;;;;;;3.80;3.50;;;20.20;51.00;;;;;;4980586;28;20688;-81
2023/05/05 03:03:25;;;;;;;3.72;3.42;;;20.20;50.80;;;;;;4980626;28;20229;-81
2023/05/05 03:05:58;;;;;;;3.45;3.15;;;20.20;50.90;;;;;;4980962;28;20192;-81
2023/05/05 03:08:28;;;;;;;3.50;3.30;;;20.20;50.90;;;;;;4981300;28;20202;-81
2023/05/05 03:11:00;;;;;;;4.13;3.70;;;20.10;50.90;;;;;;4981071;28;20218;-81
2023/05/05 03:13:27;;;;;;;3.60;3.30;;;20.20;50.90;;;;;;4980817;28;20210;-81
2023/05/05 03:15:56;;;;;;;3.55;3.28;;;20.20;51.10;;;;;;4980887;28;20251;-81
2023/05/05 03:18:25;;;;;;;3.45;3.15;;;20.10;51.10;;;;;;4981171;28;20573;-81
2023/05/05 03:21:07;;;;;;;3.90;3.50;;;20.20;51.20;;;;;;4980454;28;20217;-81
2023/05/05 03:23:35;;;;;;;3.33;3.03;;;20.20;51.30;;;;;;4996980;28;20185;-81
2023/05/05 03:26:06;;;;;;;3.60;3.30;;;20.20;51.40;;;;;;4980380;28;20285;-81
2023/05/05 03:28:38;;;;;;;3.42;3.17;;;20.20;51.50;;;;;;4981550;28;20221;-81
2023/05/05 03:31:14;;;;;;;3.53;3.22;;;20.20;51.40;;;;;;4980243;28;20241;-81
2023/05/05 03:33:41;;;;;;;3.45;3.17;;;20.20;51.30;;;;;;4980537;28;20304;-81
2023/05/05 03:36:09;;;;;;;3.50;3.22;;;20.30;51.30;;;;;;4980482;28;20539;-81
2023/05/05 03:38:35;;;;;;;3.28;3.08;;;20.30;51.20;;;;;;4980053;28;20248;-81
2023/05/05 03:41:04;;;;;;;3.45;3.15;;;20.30;51.10;;;;;;4980379;28;20248;-81
2023/05/05 03:43:34;;;;;;;3.10;2.90;;;20.30;51.00;;;;;;4980562;28;20196;-81
2023/05/05 03:46:02;;;;;;;4.50;3.97;;;20.30;51.00;;;;;;4980259;28;20602;-81
2023/05/05 03:48:29;;;;;;;3.20;3.00;;;20.40;51.00;;;;;;4980037;28;20200;-81
2023/05/05 03:50:57;;;;;;;3.47;3.17;;;20.40;51.00;;;;;;4979751;28;20302;-81
2023/05/05 03:53:27;;;;;;;3.40;3.20;;;20.30;50.90;;;;;;4979739;28;20304;-81
2023/05/05 03:55:55;;;;;;;4.13;3.40;;;20.40;50.90;;;;;;4979750;28;20284;-81
2023/05/05 03:58:22;;;;;;;3.28;2.97;;;20.40;50.90;;;;;;4964746;28;20228;-81
2023/05/05 04:00:51;;;;;;;3.22;3.03;;;20.40;50.80;;;;;;4980180;28;20588;-81
2023/05/05 04:03:20;;;;;;;3.58;3.28;;;20.40;50.80;;;;;;4996346;28;20640;-81
2023/05/05 04:05:47;;;;;;;3.83;3.13;;;20.40;50.80;;;;;;4981139;28;20264;-81
2023/05/05 04:08:15;;;;;;;3.75;3.45;;;20.50;50.80;;;;;;4981220;28;20225;-82
2023/05/05 04:10:42;;;;;;;4.00;3.30;;;20.50;50.80;;;;;;4984085;28;20237;-81
2023/05/05 04:13:10;;;;;;;3.40;3.03;;;20.50;50.60;;;;;;4969120;28;20204;-81
2023/05/05 04:15:38;;;;;;;3.72;3.42;;;20.40;50.60;;;;;;4985942;28;20216;-82
2023/05/05 04:18:07;;;;;;;3.30;3.10;;;20.50;50.60;;;;;;5000389;28;20200;-81
2023/05/05 04:20:35;;;;;;;4.72;3.42;;;20.50;50.60;;;;;;4982752;28;20222;-81
2023/05/05 04:23:03;;;;;;;3.28;3.08;;;20.50;50.60;;;;;;4982431;28;20193;-81
2023/05/05 04:25:31;;;;;;;3.45;3.20;;;20.40;50.60;;;;;;4998059;28;20225;-82
2023/05/05 04:27:58;;;;;;;3.38;3.08;;;20.40;50.50;;;;;;4980877;28;20194;-82
2023/05/05 04:30:26;;;;;;;3.25;3.05;;;20.50;50.60;;;;;;4980695;28;20248;-81
2023/05/05 04:32:53;;;;;;;3.53;3.25;;;20.40;50.60;;;;;;4980736;28;20293;-81
2023/05/05 04:35:21;;;;;;;3.30;3.10;;;20.50;50.60;;;;;;4980497;28;20295;-81
2023/05/05 04:37:48;;;;;;;3.13;2.92;;;20.50;50.80;;;;;;4980588;28;20252;-82
2023/05/05 04:40:16;;;;;;;3.85;3.40;;;20.50;50.60;;;;;;4981728;28;20213;-81
2023/05/05 04:42:43;;;;;;;3.30;3.10;;;20.50;50.60;;;;;;4979427;28;20268;-81
2023/05/05 04:45:11;;;;;;;3.40;3.20;;;20.50;50.60;;;;;;4979568;28;20548;-81
2023/05/05 04:47:39;;;;;;;3.20;3.00;;;20.50;50.60;;;;;;4978583;28;20190;-80
2023/05/05 04:50:08;;;;;;;3.28;2.95;;;20.50;50.60;;;;;;4978598;28;20214;-80
2023/05/05 04:52:37;;;;;;;3.80;3.50;;;20.50;50.60;;;;;;4978248;28;20616;-80
2023/05/05 04:55:05;;;;;;;3.10;2.90;;;20.50;50.60;;;;;;4978773;28;20237;-77
2023/05/05 04:57:33;;;;;;;3.30;3.10;;;20.50;50.60;;;;;;4978309;28;20684;-78
2023/05/05 05:00:03;;;;;;;3.40;3.10;;;20.60;50.70;;;;;;4978221;28;20244;-78
2023/05/05 05:02:30;;;;;;;3.17;2.97;;;20.60;50.70;;;;;;4978694;28;20201;-78
2023/05/05 05:04:57;;;;;;;3.20;3.00;;;20.60;50.60;;;;;;4978127;28;20181;-78
2023/05/05 05:07:24;;;;;;;3.25;3.05;;;20.60;50.60;;;;;;4977900;28;20197;-78
2023/05/05 05:09:53;;;;;;;3.38;3.17;;;20.70;50.60;;;;;;4978428;28;20284;-81
2023/05/05 05:12:21;;;;;;;3.10;2.90;;;20.70;50.60;;;;;;4962373;28;20371;-81
2023/05/05 05:14:48;;;;;;;2.95;2.75;;;20.70;50.80;;;;;;4978079;28;20221;-82
2023/05/05 05:17:15;;;;;;;3.58;2.80;;;20.80;50.80;;;;;;4978379;28;20209;-82
2023/05/05 05:19:42;;;;;;;3.13;2.83;;;20.80;50.50;;;;;;4979602;28;20221;-84
2023/05/05 05:22:10;;;;;;;3.33;3.03;;;21.00;51.00;;;;;;4980169;28;20202;-82
2023/05/05 05:24:40;;;;;;;3.40;3.10;;;21.00;50.60;;;;;;4978791;28;20682;-81
2023/05/05 05:27:09;;;;;;;3.80;3.50;;;21.10;50.60;;;;;;4979900;28;20197;-81
2023/05/05 05:29:36;;;;;;;4.68;3.30;;;21.10;50.80;;;;;;4979413;28;20222;-82
2023/05/05 05:32:04;;;;;;;4.07;3.67;;;21.20;50.80;;;;;;4962259;28;20194;-81
2023/05/05 05:34:31;;;;;;;4.00;3.70;;;21.30;50.60;;;;;;4977996;28;20752;-82
2023/05/05 05:36:59;;;;;;;4.18;3.85;;;21.40;50.60;;;;;;4978811;28;20202;-82
2023/05/05 05:39:27;;;;;;;5.05;3.92;;;21.40;50.20;;;;;;4962268;28;20221;-82
2023/05/05 05:41:55;;;;;;;5.50;4.38;;;21.50;50.20;;;;;;4977941;28;20204;-82
2023/05/05 05:44:23;;;;;;;3.97;3.63;;;21.60;50.10;;;;;;4977698;28;20682;-82
2023/05/05 05:46:50;;;;;;;4.35;3.95;;;21.70;49.90;;;;;;4977834;28;20722;-81
2023/05/05 05:49:18;;;;;;;5.03;4.18;;;21.80;49.80;;;;;;4977651;28;20217;-81
2023/05/05 05:51:45;;;;;;;4.72;4.25;;;21.90;50.20;;;;;;4977907;28;20672;-80
2023/05/05 05:54:12;;;;;;;4.68;4.20;;;21.90;49.90;;;;;;4980181;28;20675;-80
2023/05/05 05:56:40;;;;;;;4.63;4.22;;;22.00;50.10;;;;;;4982180;28;20260;-80
2023/05/05 05:59:09;;;;;;;4.18;3.88;;;22.00;49.80;;;;;;4981666;28;20252;-80
2023/05/05 06:01:39;;;;;;;4.32;3.92;;;22.10;49.70;;;;;;4983016;28;20307;-80
2023/05/05 06:04:07;;;;;;;4.75;4.35;;;22.30;49.70;;;;;;4981370;28;20201;-80
2023/05/05 06:06:34;;;;;;;5.05;3.95;;;22.30;49.40;;;;;;4981261;28;20204;-80
2023/05/05 06:09:01;;;;;;;4.50;3.97;;;22.40;49.20;;;;;;4965814;28;20216;-80
2023/05/05 06:11:29;;;;;;;4.22;3.83;;;22.50;48.90;;;;;;4981640;28;20205;-80
2023/05/05 06:13:57;;;;;;;5.28;4.22;;;22.50;48.80;;;;;;4966049;28;20218;-83
2023/05/05 06:16:24;;;;;;;5.28;4.35;;;22.50;48.70;;;;;;4982193;28;20212;-80
2023/05/05 06:18:53;;;;;;;5.85;4.20;;;22.50;48.40;;;;;;4982292;28;20579;-81
2023/05/05 06:21:19;;;;;;;4.60;3.90;;;22.50;48.30;;;;;;4999290;28;20268;-81
2023/05/05 06:23:47;;;;;;;5.15;4.25;;;22.50;48.40;;;;;;4981683;28;20259;-81
2023/05/05 06:26:15;;;;;;;5.05;3.83;;;22.50;48.50;;;;;;4949732;28;20639;-81
2023/05/05 06:28:41;;;;;;;4.30;3.90;;;22.40;48.50;;;;;;4981320;28;20213;-81
2023/05/05 06:31:11;;;;;;;5.57;3.88;;;22.40;48.50;;;;;;4981387;28;20707;-81
2023/05/05 06:33:38;;;;;;;4.25;3.90;;;22.40;48.50;;;;;;4965927;28;20201;-81
2023/05/05 06:36:07;;;;;;;4.38;3.97;;;22.40;48.50;;;;;;4981501;28;20221;-81
2023/05/05 06:38:34;;;;;;;4.50;4.10;;;22.40;48.50;;;;;;4980809;28;20194;-81
2023/05/05 06:41:01;;;;;;;3.75;3.45;;;22.40;48.50;;;;;;4981305;28;20268;-81
2023/05/05 06:43:29;;;;;;;4.13;3.83;;;22.40;48.50;;;;;;4980689;28;20201;-81
2023/05/05 06:45:59;;;;;;;3.97;3.58;;;22.40;48.50;;;;;;4982227;28;20221;-81
2023/05/05 06:48:28;;;;;;;4.20;3.80;;;22.40;48.50;;;;;;4981038;28;20213;-81
2023/05/05 06:50:56;;;;;;;7.35;4.50;;;22.40;48.40;;;;;;4964934;28;20217;-81
2023/05/05 06:53:26;;;;;;;4.45;3.83;;;22.40;48.40;;;;;;4980600;28;20213;-81
2023/05/05 06:55:53;;;;;;;5.18;4.03;;;22.40;48.30;;;;;;4981275;28;20217;-81
2023/05/05 06:58:20;;;;;;;4.18;3.88;;;22.50;48.30;;;;;;4980818;28;20208;-81
2023/05/05 07:00:47;;;;;;;5.32;4.20;;;22.50;48.20;;;;;;4999034;28;20296;-81
2023/05/05 07:03:15;;;;;;;4.03;3.42;;;22.60;48.10;;;;;;4997064;28;20256;-81
2023/05/05 07:05:42;;;;;;;4.10;3.80;;;22.60;47.90;;;;;;4996434;28;20193;-81
2023/05/05 07:08:10;;;;;;;5.53;4.10;;;22.70;47.90;;;;;;4965029;28;20193;-81
2023/05/05 07:10:38;;;;;;;5.13;4.10;;;22.60;47.80;;;;;;4997164;28;20790;-81
2023/05/05 07:13:06;;;;;;;4.57;3.75;;;22.70;47.90;;;;;;4982161;28;20197;-81
2023/05/05 07:15:34;;;;;;;4.60;3.63;;;22.70;47.90;;;;;;4980743;28;20228;-81
2023/05/05 07:18:01;;;;;;;4.32;3.80;;;22.70;47.90;;;;;;4981041;28;20197;-81
2023/05/05 07:20:28;;;;;;;3.83;3.53;;;22.70;47.80;;;;;;4964544;28;20226;-81
2023/05/05 07:22:56;;;;;;;4.35;3.95;;;22.70;47.90;;;;;;4980485;28;20654;-81
2023/05/05 07:25:23;;;;;;;3.88;3.58;;;22.70;48.30;;;;;;4980580;28;20225;-81
2023/05/05 07:27:51;;;;;;;3.95;3.63;;;22.80;47.60;;;;;;4980680;28;20292;-81
2023/05/05 07:30:19;;;;;;;3.92;3.60;;;22.80;47.60;;;;;;4980759;28;20217;-81
2023/05/05 07:32:46;;;;;;;3.63;3.20;;;22.80;47.50;;;;;;4980040;28;20648;-81
2023/05/05 07:35:13;;;;;;;4.15;3.85;;;22.80;47.40;;;;;;4980401;28;20220;-81
2023/05/05 07:37:40;;;;;;;4.10;3.72;;;22.80;47.40;;;;;;4980894;28;20711;-81
2023/05/05 07:40:08;;;;;;;3.97;3.58;;;22.90;47.50;;;;;;4980845;28;20222;-81
2023/05/05 07:42:36;;;;;;;4.13;3.70;;;22.80;47.40;;;;;;4981179;28;20205;-81
2023/05/05 07:45:05;;;;;;;4.30;3.90;;;22.80;47.30;;;;;;4982753;28;20193;-81
2023/05/05 07:47:33;;;;;;;3.80;3.42;;;22.80;47.40;;;;;;4999284;28;20220;-81
2023/05/05 07:50:01;;;;;;;3.97;3.53;;;22.80;47.30;;;;;;4980525;28;20221;-81
2023/05/05 07:52:28;;;;;;;3.78;3.47;;;22.80;47.30;;;;;;4980676;28;20213;-81
2023/05/05 07:54:55;;;;;;;3.70;3.40;;;22.80;47.20;;;;;;4996774;28;20209;-81
2023/05/05 07:57:22;;;;;;;3.83;3.42;;;22.80;47.30;;;;;;4980934;28;20666;-82
2023/05/05 07:59:49;;;;;;;3.28;3.08;;;22.80;47.30;;;;;;4984684;28;20217;-81
2023/05/05 08:02:17;;;;;;;3.58;3.28;;;22.80;47.30;;;;;;4984588;28;20216;-81
2023/05/05 08:04:45;;;;;;;3.55;3.25;;;22.80;47.30;;;;;;4984802;28;20190;-81
2023/05/05 08:07:11;;;;;;;3.42;3.13;;;22.80;47.40;;;;;;4985380;28;20212;-81
2023/05/05 08:09:40;;;;;;;3.30;3.10;;;22.80;47.40;;;;;;4983945;28;20296;-81
2023/05/05 08:12:07;;;;;;;2.88;2.67;;;22.80;47.50;;;;;;4980628;28;20655;-81
2023/05/05 08:14:36;;;;;;;3.25;2.90;;;22.80;47.40;;;;;;4980591;28;20228;-81
2023/05/05 08:17:05;;;;;;;3.22;3.03;;;22.70;47.50;;;;;;4981439;28;20201;-81
2023/05/05 08:19:34;;;;;;;3.22;2.80;;;22.70;47.50;;;;;;4980604;28;20249;-81
2023/05/05 08:22:01;;;;;;;2.97;2.78;;;22.70;47.60;;;;;;4979708;28;20197;-81
2023/05/05 08:24:29;;;;;;;4.50;3.10;;;22.70;47.70;;;;;;4963912;28;20201;-81
2023/05/05 08:26:56;;;;;;;3.42;2.72;;;22.60;47.70;;;;;;4981314;28;20296;-81
2023/05/05 08:29:23;;;;;;;2.92;2.72;;;22.60;47.80;;;;;;4964863;28;20221;-81
2023/05/05 08:31:51;;;;;;;2.90;2.70;;;22.60;47.80;;;;;;4980058;28;20190;-81
2023/05/05 08:34:18;;;;;;;2.92;2.72;;;22.60;47.80;;;;;;4980766;28;20205;-81
2023/05/05 08:36:47;;;;;;;2.90;2.70;;;22.60;47.80;;;;;;4980287;28;20217;-81
2023/05/05 08:39:15;;;;;;;3.05;2.85;;;22.60;47.80;;;;;;4980758;28;20232;-81
2023/05/05 08:41:42;;;;;;;3.10;2.80;;;22.60;47.80;;;;;;4980981;28;20232;-81
2023/05/05 08:44:10;;;;;;;2.97;2.78;;;22.60;47.80;;;;;;4980181;28;20229;-81
2023/05/05 08:46:38;;;;;;;2.90;2.70;;;22.60;47.80;;;;;;4964126;28;20590;-81
2023/05/05 08:49:07;;;;;;;2.80;2.60;;;22.70;47.90;;;;;;4980035;28;20204;-81
2023/05/05 08:51:38;;;;;;;3.20;2.90;;;22.60;47.80;;;;;;4979786;28;20660;-81
2023/05/05 08:54:07;;;;;;;2.90;2.70;;;22.70;47.90;;;;;;5152267;22;20235;-82
2023/05/05 08:56:36;;;;;;;3.17;2.70;;;22.70;47.80;;;;;;5057683;28;20242;-80
2023/05/05 08:59:03;;;;;;;3.20;3.00;;;22.80;47.70;;;;;;5056821;28;20195;-80
2023/05/05 09:01:31;;;;;;;3.30;3.00;;;22.80;47.60;;;;;;5056339;28;20203;-81
2023/05/05 09:03:58;;;;;;;3.33;2.58;;;22.80;47.70;;;;;;5055998;28;20640;-81
2023/05/05 09:06:26;;;;;;;2.88;2.67;;;22.80;47.50;;;;;;5056088;28;20195;-82
2023/05/05 09:08:53;;;;;;;2.90;2.70;;;22.80;47.50;;;;;;5057105;28;20249;-81
2023/05/05 09:11:22;;;;;;;2.83;2.63;;;22.90;47.60;;;;;;5057064;28;20210;-81
2023/05/05 09:13:49;;;;;;;2.80;2.60;;;22.90;47.60;;;;;;5056301;28;20267;-81
2023/05/05 09:16:16;;;;;;;2.78;2.58;;;22.90;47.60;;;;;;5055744;28;20215;-81
2023/05/05 09:18:44;;;;;;;2.60;2.40;;;22.90;47.50;;;;;;5056146;28;20195;-80
2023/05/05 09:21:21;;;;;;;2.80;2.50;;;22.90;47.60;;;;;;5039711;28;20280;-81
2023/05/05 09:24:04;;;;;;;2.92;2.72;;;22.90;47.50;;;;;;5055872;28;20199;-81
2023/05/05 09:26:32;;;;;;;3.00;2.80;;;22.90;47.40;;;;;;5054975;28;20197;-81
2023/05/05 09:29:00;;;;;;;3.08;2.78;;;22.90;47.40;;;;;;5055509;28;20226;-81
2023/05/05 09:31:29;;;;;;;3.10;2.90;;;22.90;47.40;;;;;;5064184;28;20203;-81
2023/05/05 09:33:59;;;;;;;2.75;2.55;;;23.00;48.10;;;;;;5053313;28;20191;-81
2023/05/05 09:36:41;;;;;;;2.67;2.47;;;22.90;47.40;;;;;;5053107;28;20215;-81
2023/05/05 09:39:08;;;;;;;3.00;2.75;;;23.00;47.50;;;;;;5053993;28;20612;-81
2023/05/05 09:41:41;;;;;;;2.92;2.72;;;23.00;47.40;;;;;;5053483;28;20249;-81
2023/05/05 09:44:08;;;;;;;2.97;2.78;;;23.00;47.40;;;;;;5037280;28;20199;-81
2023/05/05 09:46:35;;;;;;;2.67;2.50;;;23.00;47.30;;;;;;5055161;28;20195;-81
2023/05/05 09:49:16;;;;;;;2.67;2.47;;;23.00;47.30;;;;;;5053618;28;20203;-81
2023/05/05 09:51:44;;;;;;;2.78;2.58;;;23.00;47.40;;;;;;5053521;28;20218;-81
2023/05/05 09:54:22;;;;;;;2.65;2.45;;;23.10;47.40;;;;;;5037282;28;20210;-81
2023/05/05 09:56:51;;;;;;;2.80;2.60;;;23.10;47.30;;;;;;5037510;28;20216;-81
2023/05/05 09:59:18;;;;;;;2.75;2.55;;;23.10;47.10;;;;;;5053657;28;20222;-81
2023/05/05 10:01:45;;;;;;;3.28;2.97;;;23.20;47.00;;;;;;5053181;28;20199;-81
2023/05/05 10:04:26;;;;;;;2.95;2.70;;;23.20;46.90;;;;;;5054186;28;20203;-81
2023/05/05 10:06:54;;;;;;;2.80;2.60;;;23.30;47.00;;;;;;5055523;28;20671;-81
2023/05/05 10:09:21;;;;;;;2.47;2.35;;;23.30;46.80;;;;;;5038649;28;20224;-82
2023/05/05 10:11:50;;;;;;;2.55;2.35;;;23.30;46.80;;;;;;5054886;28;20191;-81
2023/05/05 10:14:18;;;;;;;2.80;2.60;;;23.40;46.70;;;;;;5054675;28;20200;-81
2023/05/05 10:16:48;;;;;;;2.63;2.42;;;23.40;46.70;;;;;;5055168;28;20212;-81
2023/05/05 10:19:16;;;;;;;2.70;2.50;;;23.40;46.60;;;;;;5037886;28;20639;-82
2023/05/05 10:21:48;;;;;;;2.75;2.55;;;23.40;46.50;;;;;;5054856;28;20200;-81
2023/05/05 10:24:22;;;;;;;3.00;2.80;;;23.40;46.40;;;;;;5054339;28;20203;-82
2023/05/05 10:26:50;;;;;;;2.78;2.58;;;23.50;46.40;;;;;;5054364;28;20211;-81
2023/05/05 10:29:20;;;;;;;2.38;2.25;;;23.50;46.30;;;;;;5053549;28;20701;-81
2023/05/05 10:31:49;;;;;;;2.78;2.58;;;23.50;46.30;;;;;;5052766;28;20194;-82
2023/05/05 10:34:20;;;;;;;2.53;2.33;;;23.50;46.20;;;;;;5053328;28;20624;-82
2023/05/05 10:36:48;;;;;;;2.78;2.58;;;23.50;46.20;;;;;;5054319;28;20215;-81
2023/05/05 10:39:15;;;;;;;2.70;2.50;;;23.50;46.30;;;;;;5053503;28;20710;-81
2023/05/05 10:41:42;;;;;;;2.83;2.63;;;23.50;46.30;;;;;;5055845;28;20290;-81
2023/05/05 10:44:11;;;;;;;2.65;2.45;;;23.50;46.30;;;;;;5058109;28;20192;-81
2023/05/05 10:46:38;;;;;;;3.17;2.97;;;23.40;46.20;;;;;;5056539;28;20191;-81
2023/05/05 10:49:10;;;;;;;2.88;2.67;;;23.40;46.20;;;;;;5056879;28;20199;-81
2023/05/05 10:51:41;;;;;;;3.03;2.63;;;23.40;46.20;;;;;;5056861;28;20252;-81
2023/05/05 10:54:12;;;;;;;2.53;2.40;;;23.40;46.30;;;;;;5056713;28;20207;-81
2023/05/05 10:56:40;;;;;;;2.70;2.50;;;23.40;46.40;;;;;;5056234;28;20218;-81
2023/05/05 11:02:00;;;;;;;2.80;2.60;;;23.30;46.40;;;;;;5091336;27;20597;-59
2023/05/05 11:04:28;;;;;;;2.80;2.60;;;23.30;46.60;;;;;;5089269;28;20217;-57
2023/05/05 11:07:24;;;;;;;2.80;2.60;;;23.20;46.50;;;;;;5090627;28;20672;-57
2023/05/05 11:09:56;;;;;;;2.72;2.53;;;23.20;46.50;;;;;;5073068;28;20205;-59
2023/05/05 11:12:23;;;;;;;2.60;2.40;;;23.20;46.50;;;;;;5090546;28;20213;-61
2023/05/05 11:15:28;;;;;;;2.60;2.40;;;23.20;46.50;;;;;;5090421;28;20210;-61
2023/05/05 11:17:57;;;;;;;2.58;2.38;;;23.20;46.50;;;;;;5089108;28;20198;-61
2023/05/05 11:20:57;;;;;;;2.70;2.50;;;23.20;46.50;;;;;;5088997;28;20228;-61
2023/05/05 11:23:24;;;;;;;2.53;2.33;;;23.20;46.50;;;;;;5089466;28;20272;-60
2023/05/05 11:25:51;;;;;;;3.03;2.75;;;23.30;46.50;;;;;;5089070;28;20228;-61
2023/05/05 11:28:19;;;;;;;2.50;2.30;;;23.30;46.50;;;;;;5090620;28;20190;-61
2023/05/05 11:31:19;;;;;;;2.33;2.22;;;23.30;46.40;;;;;;5089414;28;20206;-59
2023/05/05 11:33:48;;;;;;;2.78;2.58;;;23.30;46.40;;;;;;5088722;28;20312;-58
2023/05/05 11:36:15;;;;;;;2.70;2.50;;;23.30;47.00;;;;;;5088717;28;20194;-59
2023/05/05 11:39:09;;;;;;;2.78;2.58;;;23.30;46.30;;;;;;5089567;28;20248;-59
2023/05/05 11:41:50;;;;;;;2.72;2.53;;;23.40;46.30;;;;;;5085852;28;20296;-59
2023/05/05 11:44:18;;;;;;;2.78;2.58;;;23.40;46.20;;;;;;5088616;28;20234;-59
2023/05/05 11:47:19;;;;;;;2.28;2.17;;;23.50;46.30;;;;;;5088450;28;20198;-59
2023/05/05 11:49:50;;;;;;;2.78;2.58;;;23.50;46.20;;;;;;5088380;28;20244;-59
2023/05/05 11:52:16;;;;;;;2.97;2.78;;;23.50;46.00;;;;;;5090064;28;20178;-59
2023/05/05 11:54:46;;;;;;;2.70;2.50;;;23.60;46.00;;;;;;5089716;28;20225;-59
2023/05/05 11:57:14;;;;;;;2.50;2.40;;;23.60;46.00;;;;;;5088300;28;20194;-59
2023/05/05 11:59:49;;;;;;;2.38;2.28;;;23.70;46.10;;;;;;5088198;28;20205;-60
2023/05/05 12:02:17;;;;;;;2.30;2.10;;;23.70;46.00;;;;;;5088233;28;20197;-59
2023/05/05 12:04:44;;;;;;;2.47;2.28;;;23.70;45.90;;;;;;5088153;28;20553;-60
2023/05/05 12:07:16;;;;;;;2.50;2.30;;;23.70;45.90;;;;;;5088206;28;20558;-59
2023/05/05 12:09:43;;;;;;;2.42;2.22;;;23.80;46.00;;;;;;5088327;28;20198;-60
2023/05/05 12:12:11;;;;;;;2.40;2.30;;;23.80;45.90;;;;;;5081160;28;20197;-60
2023/05/05 12:14:45;;;;;;;2.40;2.30;;;23.80;45.90;;;;;;5075864;28;20225;-59
2023/05/05 12:17:12;;;;;;;2.65;2.45;;;23.80;45.90;;;;;;5074711;28;20202;-59
2023/05/05 12:19:45;;;;;;;2.25;2.15;;;23.80;45.90;;;;;;5074834;28;20750;-60
2023/05/05 12:22:18;;;;;;;2.40;2.30;;;23.80;45.90;;;;;;5074469;28;20223;-60
2023/05/05 12:24:53;;;;;;;2.55;2.35;;;23.80;46.00;;;;;;5075297;28;20264;-60
2023/05/05 12:27:19;;;;;;;3.17;2.58;;;23.80;45.90;;;;;;5074919;28;20186;-60
2023/05/05 12:29:47;;;;;;;2.47;2.33;;;23.80;45.90;;;;;;5083079;28;20237;-60
2023/05/05 12:32:21;;;;;;;2.33;2.22;;;23.80;45.90;;;;;;5076090;28;20274;-60
2023/05/05 12:34:49;;;;;;;2.50;2.40;;;23.80;45.90;;;;;;5074272;28;20218;-59
2023/05/05 12:37:17;;;;;;;2.50;2.40;;;23.80;45.90;;;;;;5074375;28;20205;-59
2023/05/05 12:39:46;;;;;;;2.67;2.47;;;23.80;45.90;;;;;;5075447;28;20269;-60
2023/05/05 12:42:13;;;;;;;2.50;2.30;;;23.70;45.90;;;;;;5074167;28;20705;-60
2023/05/05 12:44:42;;;;;;;2.70;2.50;;;23.80;45.90;;;;;;5075511;28;20210;-60
2023/05/05 12:47:10;;;;;;;2.40;2.20;;;23.70;45.90;;;;;;5075814;28;20193;-60
2023/05/05 12:49:47;;;;;;;2.40;2.20;;;23.70;45.90;;;;;;5075555;28;20214;-60
2023/05/05 12:52:15;;;;;;;2.50;2.30;;;23.70;46.00;;;;;;5074249;28;20197;-60
2023/05/05 12:54:57;;;;;;;2.60;2.40;;;23.70;46.00;;;;;;5074049;28;20658;-60
2023/05/05 12:57:24;;;;;;;2.50;2.30;;;23.70;46.00;;;;;;5074958;28;20251;-61
2023/05/05 12:59:51;;;;;;;2.30;2.20;;;23.60;45.90;;;;;;5075147;28;20209;-61
2023/05/05 13:02:19;;;;;;;2.35;2.25;;;23.60;46.00;;;;;;5074697;28;20234;-60